Date,TemperatureHighF,TemperatureAvgF,TemperatureLowF,DewpointHighF,DewpointAvgF,DewpointLowF,HumidityHigh,HumidityAvg,HumidityLow,PressureMaxIn,PressureMinIn,WindSpeedMaxMPH,WindSpeedAvgMPH,GustSpeedMaxMPH,PrecipitationSumIn
2012-1-1,70.0,51.0,40.6,44.9,34.8,27.2,86,60,25,30.19,30.10,6,1,8,0.00
2012-1-2,63.9,49.1,40.8,43.2,38.1,33.6,85,69,38,30.28,30.13,6,1,8,0.00
2012-1-3,69.4,51.0,40.1,47.4,34.9,25.6,90,61,24,30.31,30.22,4,1,6,0.00
2012-1-4,72.7,53.8,42.1,40.0,30.1,24.6,74,46,22,30.37,30.25,4,1,6,0.00
2012-1-5,75.0,52.4,40.6,36.2,31.5,26.2,73,50,21,30.28,30.13,7,2,10,0.00
2012-1-6,67.8,50.5,42.3,47.8,37.0,29.9,95,66,29,30.19,30.07,4,1,6,0.00
2012-1-7,71.1,53.2,36.3,40.2,20.6,6.6,86,42,14,30.19,30.10,8,2,15,0.00
2012-1-8,73.0,57.1,43.7,15.6,9.2,4.8,34,18,14,30.22,30.13,7,2,9,0.00
2012-1-9,72.1,50.4,37.4,27.9,23.1,15.3,54,38,19,30.22,30.10,4,2,6,0.00
2012-1-10,70.3,49.9,37.4,33.7,25.0,18.6,69,44,22,30.13,30.04,5,1,6,0.00
2012-1-11,46.4,42.8,40.5,19.1,16.0,11.5,42,36,28,30.07,30.04,4,1,4,0.00
2012-1-12,72.9,51.3,36.3,23.2,15.5,7.7,49,29,14,30.10,30.01,4,1,6,0.00
2012-1-13,71.8,50.2,36.9,23.9,19.0,12.5,49,34,16,30.22,30.10,5,2,6,0.00
2012-1-14,72.3,49.9,35.6,27.3,21.8,14.9,58,39,16,30.16,30.04,4,1,5,0.00
2012-1-15,58.1,44.3,36.9,38.8,25.5,15.0,78,50,33,30.13,29.99,11,3,15,0.00
2012-1-16,59.2,40.5,28.2,18.0,12.7,2.6,53,36,17,30.28,30.10,7,2,10,0.00
2012-1-17,60.4,40.3,26.8,23.2,18.7,15.2,69,46,22,30.37,30.28,6,2,8,0.00
2012-1-18,63.1,42.9,29.5,28.7,23.9,19.1,74,52,25,30.37,30.22,4,2,7,0.00
2012-1-19,48.0,41.7,33.4,43.3,31.7,23.6,86,69,43,30.22,30.01,4,0,5,0.08
2012-1-20,59.0,54.0,47.3,55.0,49.0,43.3,95,84,65,30.01,29.72,13,3,21,1.77
2012-1-21,56.8,49.3,39.7,52.7,36.9,25.9,86,65,37,30.13,29.72,16,6,22,0.51
2012-1-22,52.7,46.6,39.4,42.9,34.4,25.3,83,64,45,30.13,29.81,12,2,17,0.08
2012-1-23,54.5,51.1,45.3,49.2,46.1,41.2,93,83,70,30.13,29.66,15,3,21,0.51
2012-1-24,63.5,50.7,44.2,46.8,40.3,32.9,94,72,35,30.40,30.13,5,1,7,0.00
2012-1-25,72.3,54.8,43.9,46.8,40.5,35.3,85,63,32,30.43,30.31,4,1,6,0.00
2012-1-26,67.6,56.6,50.0,53.6,47.3,41.8,85,73,46,30.34,30.19,8,1,13,0.00
2012-1-27,72.9,55.7,46.6,46.8,23.8,6.6,90,42,14,30.25,30.16,9,1,13,0.00
2012-1-28,73.2,52.6,38.8,29.4,17.2,6.2,57,30,14,30.31,30.22,4,2,6,0.00
2012-1-29,71.6,52.3,39.0,39.3,32.0,25.7,77,51,23,30.25,30.10,4,1,5,0.00
2012-1-30,63.7,51.9,44.1,43.4,35.8,28.0,83,58,31,30.13,29.99,9,1,11,0.00
2012-1-31,67.8,53.2,45.7,43.9,38.8,30.8,85,62,31,30.19,30.04,8,2,12,0.00
2012-2-1,65.1,51.8,42.6,48.6,37.3,29.9,86,62,32,30.25,30.16,7,2,10,0.00
2012-2-2,74.3,53.0,39.2,39.8,21.4,6.2,81,41,13,30.22,29.93,8,1,9,0.00
2012-2-3,70.3,52.1,38.7,33.8,23.4,12.4,68,37,22,30.04,29.96,9,1,11,0.00
2012-2-4,73.0,51.9,39.6,36.2,28.5,19.8,77,48,19,30.10,30.01,4,1,6,0.00
2012-2-5,71.2,52.2,39.2,31.3,22.9,12.9,62,39,17,30.10,29.99,5,2,6,0.00
2012-2-6,70.7,53.7,42.6,38.8,25.8,22.2,61,38,22,29.99,29.78,6,1,8,0.00
2012-2-7,55.8,52.5,50.0,47.5,42.7,29.7,78,70,41,30.10,29.75,8,2,13,0.16
2012-2-8,72.7,55.1,46.2,52.1,40.3,31.6,91,64,26,30.25,30.07,4,1,6,0.00
2012-2-9,76.6,57.0,42.4,45.4,36.9,29.8,82,55,22,30.25,30.13,10,1,13,0.00
2012-2-10,67.3,53.0,42.8,48.6,39.4,25.7,76,63,29,30.19,30.07,8,2,12,0.00
2012-2-11,59.0,51.8,48.2,45.1,41.9,36.3,84,70,46,30.07,29.99,10,3,14,0.00
2012-2-12,62.6,51.4,46.8,41.1,36.3,29.1,77,59,34,30.04,29.96,10,2,14,0.00
2012-2-13,54.0,46.6,40.1,41.9,34.8,29.3,85,65,46,29.99,29.87,12,4,17,0.08
2012-2-14,63.3,46.4,34.5,43.4,33.1,23.8,91,65,27,30.07,29.96,10,2,18,0.04
2012-2-15,63.7,51.2,36.1,43.1,19.0,7.0,83,36,16,30.13,30.01,15,3,17,0.16
2012-2-16,73.6,55.3,42.4,19.3,14.1,9.7,40,24,13,30.22,30.13,7,2,10,0.00
2012-2-17,74.5,52.3,38.5,44.7,30.2,18.4,79,48,21,30.22,30.13,9,2,12,0.00
2012-2-18,63.3,52.5,44.4,48.9,35.7,21.8,94,59,26,30.19,30.07,9,3,14,0.00
2012-2-19,59.4,46.3,37.2,34.1,25.8,17.7,69,49,24,30.13,30.01,9,2,13,0.00
2012-2-20,64.0,51.2,43.7,43.7,34.9,30.2,79,57,34,30.19,30.04,6,1,8,0.00
2012-2-21,75.9,54.7,40.5,42.1,34.7,28.2,82,54,22,30.25,30.16,8,1,11,0.00
2012-2-22,85.8,63.5,48.9,42.6,31.4,20.0,74,38,13,30.25,30.07,8,2,11,0.00
2012-2-23,82.2,63.5,45.7,40.4,22.2,9.2,77,32,12,30.07,29.96,7,2,10,0.00
2012-2-24,82.8,62.8,49.8,35.4,16.0,6.6,57,23,11,30.16,29.99,8,3,12,0.00
2012-2-25,70.3,53.5,41.0,35.7,22.9,13.8,60,36,17,30.28,30.16,7,3,10,0.00
2012-2-26,66.6,46.7,35.2,25.7,18.9,9.1,52,38,15,30.16,29.81,13,3,20,0.00
2012-2-27,58.8,45.6,37.2,32.1,23.5,17.9,69,46,25,29.93,29.75,11,3,13,0.00
2012-2-28,56.7,46.2,35.6,32.7,24.8,16.9,74,48,26,30.19,29.93,12,4,17,0.00
2012-2-29,54.7,48.2,42.8,44.4,34.8,25.0,86,63,37,30.22,29.99,11,4,17,0.59
2012-3-1,56.8,46.7,39.4,45.1,36.9,30.8,84,70,47,30.22,30.13,10,4,13,0.35
2012-3-2,72.3,50.8,36.7,34.1,21.4,7.7,83,43,14,30.31,30.19,5,1,8,0.00
2012-3-3,80.1,55.1,37.2,29.4,23.7,17.3,60,36,15,30.31,30.22,6,2,8,0.00
2012-3-4,82.9,59.0,41.9,35.0,29.6,22.5,64,40,16,30.22,30.04,5,2,8,0.00
2012-3-5,76.8,56.4,43.7,41.0,32.0,19.5,74,48,16,30.07,29.99,10,2,14,0.00
2012-3-6,65.3,51.3,42.4,44.3,21.9,5.4,84,40,15,30.01,29.87,13,4,18,0.00
2012-3-7,72.9,52.4,39.7,14.3,10.0,4.5,32,22,14,30.16,29.99,6,3,10,0.00
2012-3-8,78.3,55.3,37.2,21.3,15.5,10.2,43,26,13,30.31,30.13,5,2,8,0.00
2012-3-9,83.8,58.6,39.4,28.0,20.5,9.5,55,30,13,30.31,30.13,7,2,10,0.00
2012-3-10,51.6,48.9,47.5,39.7,36.2,33.8,66,62,60,30.01,0.00,9,4,14,0.00
2012-3-11,63.5,51.1,43.7,39.1,33.2,26.8,65,53,29,30.04,29.99,10,4,13,0.00
2012-3-12,63.5,49.9,37.0,38.1,28.9,21.6,80,50,25,30.01,29.93,11,3,20,0.00
2012-3-13,55.0,53.3,51.1,44.8,41.0,31.9,77,64,47,29.99,29.87,13,6,17,0.35
2012-3-14,58.6,56.2,54.0,50.3,46.9,42.9,82,72,65,30.13,29.96,10,4,13,0.43
2012-3-15,60.8,57.4,55.2,51.3,48.0,44.9,81,71,63,30.13,30.04,8,2,11,0.04
2012-3-16,59.9,54.4,46.4,51.5,45.7,34.6,82,73,57,30.07,29.72,10,4,15,1.38
2012-3-17,50.7,45.6,39.9,45.7,35.0,25.2,94,69,45,29.75,29.51,5,1,8,0.00
2012-3-18,55.9,45.7,41.4,31.4,23.5,14.4,66,45,27,29.93,29.63,13,6,17,0.00
2012-3-19,65.1,47.8,34.3,26.5,21.0,16.8,65,39,21,30.07,29.90,6,1,8,0.00
2012-3-20,72.9,56.4,46.6,35.3,29.4,23.2,54,40,23,30.19,30.07,7,1,8,0.00
2012-3-21,76.5,57.8,44.6,46.2,36.8,29.3,76,52,23,30.16,29.99,8,2,11,0.00
2012-3-22,60.3,52.5,43.0,47.2,33.9,15.2,79,54,24,30.01,29.93,12,4,19,0.00
2012-3-23,68.7,50.0,36.9,36.9,24.2,14.2,77,43,18,30.07,29.87,10,2,13,0.00
2012-3-24,51.6,46.6,43.5,38.9,32.3,16.3,81,61,28,29.90,29.81,10,2,14,0.39
2012-3-25,63.0,48.5,40.1,41.1,36.2,27.6,86,66,31,29.87,29.78,4,1,4,0.39
2012-3-26,59.9,49.6,39.9,37.5,28.7,19.8,83,51,26,30.04,29.87,14,3,17,0.00
2012-3-27,58.5,52.5,48.2,46.3,36.2,26.1,78,56,38,30.01,29.87,12,4,20,0.59
2012-3-28,67.3,56.9,48.7,49.8,40.3,26.4,85,59,26,30.10,29.93,10,4,13,0.31
2012-3-29,66.6,54.6,45.0,47.5,38.8,28.4,86,60,29,30.10,30.04,8,2,11,0.00
2012-3-30,69.3,58.1,48.9,49.8,41.7,35.4,83,59,34,30.10,29.93,9,2,13,0.00
2012-3-31,57.7,52.9,46.0,44.9,36.7,26.4,78,57,36,30.01,29.72,14,6,22,0.75
2012-4-1,68.4,52.5,41.5,40.2,28.8,20.5,80,47,20,30.25,30.01,9,2,14,0.00
2012-4-2,72.9,53.3,39.2,39.1,29.1,21.8,77,47,19,30.22,30.04,10,2,13,0.00
2012-4-3,70.0,54.3,44.6,46.6,36.2,24.0,78,56,23,30.07,29.99,10,3,17,0.04
2012-4-4,64.4,50.5,38.8,38.8,26.8,11.1,83,47,18,30.16,30.07,12,4,16,0.00
2012-4-5,65.1,47.9,36.7,25.9,22.1,14.1,59,40,20,30.16,30.04,11,3,14,0.00
2012-4-6,72.0,50.6,35.1,33.2,22.3,11.3,76,42,14,30.22,30.13,7,1,10,0.00
2012-4-7,77.2,54.2,36.3,31.1,23.9,16.5,67,38,15,30.13,29.99,6,2,8,0.00
2012-4-8,76.5,53.9,39.4,30.7,25.2,18.1,62,39,16,30.04,29.96,12,3,14,0.00
2012-4-9,76.3,56.0,41.2,36.4,25.8,10.0,66,38,14,29.99,29.81,11,2,20,0.00
2012-4-10,57.2,54.2,51.4,48.8,41.8,25.3,84,66,35,29.90,29.81,12,1,16,0.83
2012-4-11,59.0,53.1,48.0,47.3,37.4,28.8,85,59,36,29.99,29.78,10,4,17,0.20
2012-4-12,63.9,52.3,46.2,43.3,35.3,20.7,80,57,25,30.01,29.84,10,4,17,0.98
2012-4-13,58.1,50.2,44.6,44.0,34.2,26.3,86,58,35,29.84,29.69,11,4,14,0.75
2012-4-14,67.1,52.9,43.5,36.5,29.9,23.8,69,45,25,30.10,29.84,10,4,14,0.00
2012-4-15,74.5,56.4,45.3,45.4,37.6,26.8,82,56,25,30.19,30.10,10,2,12,0.00
2012-4-16,72.0,56.6,43.9,45.8,34.3,18.4,83,51,17,30.22,30.13,9,2,13,0.00
2012-4-17,73.4,57.1,48.2,50.1,38.8,25.9,85,57,23,30.16,30.07,12,2,16,0.00
2012-4-18,71.6,57.6,47.1,47.3,39.1,27.9,78,56,24,30.16,30.07,11,3,15,0.00
2012-4-19,79.9,64.3,51.6,51.0,45.4,40.9,84,56,30,30.16,30.04,10,2,13,0.00
2012-4-20,96.3,72.2,55.4,58.2,42.3,21.6,86,47,11,30.10,29.99,7,1,8,0.00
2012-4-21,98.8,74.4,55.8,46.6,39.7,29.2,62,37,13,30.01,29.87,5,1,8,0.00
2012-4-22,90.0,71.0,57.2,53.2,43.8,32.7,71,45,19,29.93,29.87,11,1,14,0.00
2012-4-23,72.0,60.3,55.2,48.7,42.6,35.7,76,56,32,30.01,29.90,10,3,16,0.00
2012-4-24,75.2,63.0,55.0,48.3,41.8,35.0,71,50,28,30.04,29.96,10,2,12,0.00
2012-4-25,75.9,62.3,55.9,51.5,44.3,36.0,79,56,31,30.01,29.78,8,1,13,0.04
2012-4-26,62.4,55.3,47.3,51.4,39.5,25.9,85,60,30,30.16,29.78,10,3,15,0.16
2012-4-27,77.4,56.3,41.4,38.3,31.0,23.6,74,45,18,30.19,30.10,9,2,13,0.00
2012-4-28,78.6,61.3,45.5,46.1,37.9,31.6,80,49,23,30.13,29.90,9,2,13,0.00
2012-4-29,90.5,66.3,48.6,50.8,38.4,27.6,83,47,15,29.96,29.87,7,1,10,0.00
2012-4-30,81.0,63.2,51.6,47.3,39.9,28.9,74,49,20,29.96,29.93,8,2,13,0.04
2012-5-1,70.7,55.0,47.1,44.9,36.5,26.7,81,55,24,29.96,29.87,13,3,19,0.00
2012-5-2,68.4,53.7,45.3,39.1,32.1,24.0,72,49,24,29.96,29.87,12,3,19,0.00
2012-5-3,64.2,55.7,48.2,50.4,40.7,33.9,84,59,42,30.07,29.93,8,2,10,0.00
2012-5-4,65.5,56.0,46.9,50.4,38.1,29.6,85,56,30,30.19,30.04,9,2,15,0.04
2012-5-5,84.4,61.0,42.1,45.0,29.4,13.9,84,43,11,30.19,30.04,7,2,9,0.00
2012-5-6,89.2,67.4,46.4,37.2,25.4,13.9,64,30,10,30.07,30.01,5,2,8,0.00
2012-5-7,95.7,69.1,49.3,38.1,26.5,17.9,57,28,11,30.01,29.96,7,2,10,0.00
2012-5-8,97.2,70.7,50.7,37.5,25.9,12.4,55,26,11,29.96,29.90,8,1,12,0.00
2012-5-9,89.4,66.4,51.4,39.4,32.3,25.5,59,34,15,29.96,29.87,8,1,10,0.00
2012-5-10,90.3,65.3,44.8,43.3,28.7,17.3,77,37,12,29.93,29.84,10,1,12,0.00
2012-5-11,92.5,72.5,51.4,35.9,22.0,9.1,52,21,11,29.99,29.84,8,3,13,0.00
2012-5-12,93.7,69.1,51.6,32.6,22.5,11.2,43,23,11,30.04,29.99,8,1,8,0.00
2012-5-13,75.9,58.9,0.0,46.6,36.5,27.3,79,47,23,30.07,29.99,9,2,15,0.00
2012-5-14,71.6,58.8,48.2,45.4,35.9,27.2,75,48,25,30.07,30.01,9,2,12,0.00
2012-5-15,75.6,61.2,49.6,46.4,38.9,30.9,80,51,24,30.04,29.96,8,2,11,0.00
2012-5-16,84.2,66.7,49.8,46.4,37.4,26.8,76,41,20,30.01,29.93,9,1,13,0.00
2012-5-17,69.8,55.8,49.1,47.7,38.9,31.3,79,57,28,29.96,29.84,15,2,27,0.00
2012-5-18,81.7,60.2,44.6,43.5,32.6,15.8,80,45,15,29.96,29.90,12,2,17,0.00
2012-5-19,88.2,63.5,45.3,42.0,30.5,18.1,75,39,13,29.99,29.90,9,2,14,0.00
2012-5-20,91.2,66.2,50.0,42.0,34.2,24.9,61,38,15,30.01,29.93,10,1,15,0.00
2012-5-21,73.8,60.3,51.4,50.5,42.4,34.1,80,56,31,30.10,29.99,11,2,17,0.00
2012-5-22,76.3,62.9,52.3,52.2,40.4,30.2,83,51,23,30.10,30.04,10,3,20,0.00
2012-5-23,73.8,61.3,52.2,44.3,35.9,27.7,73,44,23,30.04,29.93,12,3,17,0.00
2012-5-24,74.1,58.9,46.9,44.1,34.4,28.2,76,45,24,29.93,29.72,11,3,16,0.00
2012-5-25,63.0,54.0,47.3,39.9,31.1,25.3,62,44,29,29.84,29.69,10,3,15,0.00
2012-5-26,65.1,54.5,46.8,41.8,37.6,32.1,74,56,34,30.07,29.81,14,3,17,0.00
2012-5-27,74.3,56.9,49.6,43.1,38.6,29.6,74,55,25,30.13,30.04,8,2,13,0.00
2012-5-28,68.9,56.7,48.9,48.4,37.7,29.3,86,54,27,30.07,30.01,12,2,15,0.00
2012-5-29,78.4,60.1,48.2,41.8,34.9,26.7,73,46,21,30.07,30.01,9,2,13,0.00
2012-5-30,88.9,64.8,46.4,46.3,36.1,26.0,81,45,17,30.07,30.01,9,2,13,0.00
2012-5-31,98.2,71.8,49.5,44.6,34.8,20.4,72,37,13,30.04,29.87,9,1,13,0.00
2012-6-1,98.1,72.5,57.2,44.1,37.1,28.1,60,35,13,29.87,29.75,10,1,13,0.00
2012-6-2,82.6,63.5,53.6,50.1,42.5,33.9,82,52,22,29.96,29.84,16,2,23,0.04
2012-6-3,84.7,63.2,49.3,46.3,34.9,20.0,78,45,14,29.96,29.90,8,2,13,0.00
2012-6-4,59.9,56.1,50.0,51.1,43.3,37.3,80,63,48,30.10,29.90,10,3,14,0.12
2012-6-5,71.4,57.1,48.4,40.9,32.2,24.5,74,45,22,30.16,30.07,12,4,15,0.00
2012-6-6,73.4,59.2,45.1,41.5,31.9,24.0,73,42,22,30.10,29.96,11,3,15,0.00
2012-6-7,77.7,60.2,46.6,45.6,38.0,28.2,80,51,21,30.01,29.96,10,2,16,0.00
2012-6-8,74.1,59.6,48.9,50.1,36.4,25.3,84,50,21,29.99,29.93,14,2,21,0.00
2012-6-9,87.6,65.6,45.0,41.9,25.5,12.5,77,35,11,29.99,29.87,5,1,10,0.00
2012-6-10,95.0,74.2,62.1,24.3,16.2,10.0,20,15,11,29.93,29.87,9,1,13,0.00
2012-6-11,97.7,74.1,56.1,32.8,23.3,13.8,37,21,11,29.96,29.90,10,2,15,0.00
2012-6-12,90.9,69.9,54.5,42.1,36.3,27.7,58,36,15,29.96,29.90,13,2,19,0.00
2012-6-13,86.5,69.1,53.4,46.4,37.3,28.8,74,39,18,29.93,29.75,8,2,13,0.00
2012-6-14,87.1,65.5,50.4,46.0,35.7,25.5,73,41,16,29.81,29.75,13,1,17,0.08
2012-6-15,90.9,68.9,47.7,41.9,30.5,17.7,71,35,12,29.84,29.75,9,2,13,0.00
2012-6-16,109.4,82.3,59.0,44.0,29.2,20.0,49,23,8,29.87,29.78,7,1,10,0.00
2012-6-17,99.1,76.9,59.7,40.9,33.1,21.6,51,26,10,29.90,29.78,6,1,10,0.00
2012-6-18,86.0,64.4,53.2,49.4,37.4,22.5,77,44,18,29.90,29.84,10,2,14,0.00
2012-6-19,92.8,68.9,49.8,46.0,32.3,20.4,74,37,12,29.90,29.81,9,2,13,0.00
2012-6-20,99.9,74.3,55.4,38.5,27.3,17.3,49,25,10,29.87,29.81,8,2,15,0.00
2012-6-21,66.0,56.6,52.0,44.4,38.3,29.9,71,53,34,29.96,29.81,10,2,15,0.00
2012-6-22,75.4,58.8,50.2,49.4,39.4,32.4,76,52,26,29.96,29.87,8,3,13,0.00
2012-6-23,74.1,60.2,51.6,49.0,35.3,25.1,75,46,21,29.96,29.84,9,3,14,0.00
2012-6-24,75.4,59.6,47.3,44.2,33.2,21.5,78,44,19,30.01,29.93,10,3,14,0.00
2012-6-25,73.2,60.1,50.2,45.5,37.2,26.0,76,49,22,30.07,30.01,10,3,15,0.00
2012-6-26,83.1,64.3,50.9,45.4,34.4,20.2,70,41,14,30.04,29.87,12,2,17,0.00
2012-6-27,87.8,66.4,50.2,44.9,31.3,14.5,74,37,13,29.96,29.87,10,2,17,0.04
2012-6-28,81.9,64.6,51.1,48.2,38.7,29.8,76,46,20,30.07,29.96,11,2,15,0.00
2012-6-29,76.5,62.9,55.9,51.5,46.2,38.1,79,59,30,30.10,30.01,10,2,13,0.00
2012-6-30,81.9,66.1,57.9,55.7,49.4,41.5,84,60,29,30.04,29.96,10,2,15,0.00
2012-7-1,72.9,62.6,57.4,55.9,49.1,43.4,84,64,38,29.99,29.90,9,3,15,0.00
2012-7-2,81.0,65.3,55.2,54.3,44.0,33.5,83,53,22,29.93,29.87,9,2,13,0.00
2012-7-3,90.0,67.4,50.9,50.1,38.2,23.7,83,45,17,29.93,29.84,7,1,10,0.00
2012-7-4,88.3,67.4,52.7,48.2,37.4,25.5,76,41,16,29.90,29.81,9,2,16,0.00
2012-7-5,73.2,60.8,54.3,45.9,39.8,28.9,71,51,24,30.01,29.87,11,3,17,0.04
2012-7-6,88.3,67.9,50.9,49.4,34.8,20.0,81,41,13,30.01,29.96,9,2,12,0.00
2012-7-7,97.9,73.7,54.1,38.7,27.8,12.5,53,26,11,30.01,29.93,9,2,13,0.00
2012-7-8,87.8,68.3,53.6,45.3,32.3,19.6,64,34,13,30.01,29.96,9,1,14,0.00
2012-7-9,91.4,67.7,53.1,49.8,34.5,20.0,80,40,12,30.04,29.96,6,1,9,0.00
2012-7-10,104.7,74.1,50.0,49.1,31.1,18.1,80,32,9,29.96,29.81,7,1,11,0.00
2012-7-11,107.6,83.1,61.3,34.8,26.8,20.0,37,19,8,29.90,29.81,8,2,12,0.00
2012-7-12,102.2,76.4,59.2,46.0,32.7,21.1,62,28,9,29.87,29.81,8,1,11,0.00
2012-7-13,78.8,62.1,51.3,50.0,40.1,30.9,82,50,23,29.96,29.84,10,2,16,0.00
2012-7-14,83.1,65.0,54.5,49.3,40.2,30.8,80,47,20,29.93,29.87,9,2,13,0.00
2012-7-15,90.9,67.9,53.1,51.7,39.9,27.6,83,46,15,29.93,29.81,8,2,14,0.00
2012-7-16,71.8,61.7,56.5,49.0,42.4,34.3,75,53,30,29.93,29.84,10,3,15,0.00
2012-7-17,75.0,62.1,54.5,47.7,39.3,31.2,75,47,24,29.99,29.90,9,2,12,0.00
2012-7-18,79.2,63.5,52.7,47.7,39.8,31.2,72,48,22,29.99,29.96,10,2,17,0.00
2012-7-19,82.9,64.2,52.7,50.8,41.1,29.7,81,50,20,30.04,29.93,10,2,15,0.00
2012-7-20,98.4,72.3,54.9,54.0,39.2,21.6,84,43,11,30.07,29.96,9,1,14,0.00
2012-7-21,104.4,77.9,57.4,48.7,33.6,20.4,69,30,9,29.99,29.87,9,2,15,0.00
2012-7-22,99.0,75.6,57.4,48.6,33.5,20.0,67,30,10,29.90,29.81,10,2,13,0.04
2012-7-23,89.4,70.0,56.7,48.2,38.5,30.6,70,38,18,29.93,29.87,10,2,16,0.00
2012-7-24,88.3,68.4,53.6,52.4,39.2,22.4,82,44,15,29.93,29.87,8,1,12,0.00
2012-7-25,84.6,65.8,55.0,53.3,41.0,30.7,82,48,19,29.96,29.90,8,2,12,0.00
2012-7-26,81.9,63.9,53.4,50.7,41.2,31.4,82,51,21,29.96,29.90,10,2,13,0.00
2012-7-27,68.2,61.2,55.9,41.7,39.2,35.8,59,47,33,29.99,29.96,4,0,6,0.00
2012-7-28,86.2,65.5,52.9,49.9,40.7,29.5,77,48,18,30.01,29.96,9,2,13,0.00
2012-7-29,90.0,68.1,55.2,49.6,37.0,18.2,77,43,12,30.01,29.93,8,2,11,0.00
2012-7-30,102.7,73.3,51.8,53.4,35.7,20.4,84,39,9,29.96,29.84,8,1,13,0.00
2012-7-31,98.8,74.7,57.2,50.4,33.0,19.3,71,31,10,29.96,29.90,8,1,15,0.00
2012-8-1,101.3,72.2,54.1,52.6,33.7,18.1,81,35,10,29.99,29.93,7,1,11,0.00
2012-8-2,102.4,73.2,53.8,52.0,34.0,20.0,80,35,9,29.96,29.81,10,1,13,0.04
2012-8-3,91.9,68.1,52.2,51.7,37.5,21.8,81,42,12,29.87,29.78,7,1,11,0.00
2012-8-4,79.9,62.9,54.0,52.4,44.8,34.0,84,56,24,29.96,29.78,9,1,13,0.00
2012-8-5,83.5,65.7,55.4,53.9,44.2,31.3,87,53,20,30.01,29.90,8,2,11,0.00
2012-8-6,97.7,69.9,51.6,51.4,37.4,20.0,85,44,11,30.04,29.99,8,1,10,0.00
2012-8-7,92.5,70.1,53.8,47.9,33.6,14.1,71,36,12,29.99,29.90,10,2,15,0.00
2012-8-8,102.4,73.3,51.4,47.6,31.4,13.9,75,33,9,29.96,29.84,8,1,12,0.00
2012-8-9,107.2,78.0,56.1,41.5,28.0,12.9,55,24,9,29.90,29.78,9,1,13,0.00
2012-8-10,106.7,78.0,58.5,42.3,29.1,18.1,54,24,9,29.81,29.69,9,1,12,0.00
2012-8-11,108.9,78.2,55.0,45.2,28.7,12.5,67,26,8,29.75,29.66,6,1,10,0.00
2012-8-12,105.4,77.8,58.8,44.3,29.7,17.3,58,26,9,29.78,29.72,6,1,10,0.00
2012-8-13,108.5,81.1,61.7,42.4,25.9,12.5,47,20,8,29.78,29.66,10,1,13,0.00
2012-8-14,101.1,77.4,64.2,40.6,29.6,17.3,42,23,10,29.75,29.66,7,1,10,0.00
2012-8-15,97.9,72.9,57.7,51.0,37.8,21.6,76,36,11,29.81,29.69,9,1,14,0.00
2012-8-16,98.6,71.3,55.0,51.5,35.1,13.9,80,39,11,29.84,29.75,9,1,14,0.00
2012-8-17,96.4,70.5,53.2,52.2,35.9,20.4,84,40,11,29.87,29.78,10,1,13,0.00
2012-8-18,93.0,71.7,57.0,47.2,35.5,21.3,67,34,12,29.84,29.78,9,2,12,0.00
2012-8-19,90.7,67.3,52.3,52.2,37.0,20.8,84,43,12,29.84,29.75,6,1,10,0.00
2012-8-20,97.2,68.7,50.9,49.2,34.4,19.7,76,40,11,29.81,29.72,7,1,10,0.00
2012-8-21,92.7,66.6,50.9,52.2,37.8,21.6,83,44,12,29.78,29.69,8,1,8,0.00
2012-8-22,87.8,65.5,52.2,54.7,40.3,27.3,86,49,15,29.78,29.75,8,1,11,0.00
2012-8-23,91.8,69.1,53.6,55.2,40.1,25.5,85,46,15,29.78,29.69,6,1,9,0.00
2012-8-24,92.1,68.4,52.3,52.2,37.5,21.8,84,43,12,29.75,29.69,8,1,11,0.00
2012-8-25,83.8,63.2,52.7,51.9,40.5,29.8,83,51,20,29.72,29.66,11,2,20,0.00
2012-8-26,72.5,58.8,54.3,46.4,41.9,31.8,74,57,27,29.84,29.72,9,2,14,0.00
2012-8-27,94.8,69.2,50.5,53.8,38.8,21.6,88,46,11,29.90,29.81,7,1,10,0.00
2012-8-28,91.2,70.7,55.2,55.7,38.6,20.4,84,41,12,29.87,29.78,10,2,15,0.00
2012-8-29,103.1,73.7,51.6,44.5,29.4,12.0,73,31,9,29.81,29.63,8,1,10,0.00
2012-8-30,94.3,72.8,56.3,41.9,27.5,20.0,55,25,11,29.69,29.63,8,1,10,0.00
2012-9-9,58.5,56.2,54.5,42.8,41.0,39.1,64,58,52,29.78,0.00,0,0,0,0.00
2012-9-10,97.3,67.7,48.9,52.2,33.8,17.3,88,43,11,29.78,29.66,9,1,12,0.00
2012-9-11,92.8,68.7,51.3,49.1,34.7,20.4,80,38,12,29.81,29.66,7,1,10,0.00
2012-9-12,95.9,70.2,51.8,52.8,36.5,21.6,84,41,11,29.90,29.78,7,1,8,0.00
2012-9-13,101.7,74.5,57.6,48.1,35.1,20.4,65,33,10,29.93,29.84,7,1,11,0.00
2012-9-14,93.7,68.3,55.4,46.4,34.4,19.3,65,37,11,29.93,29.81,6,1,10,0.00
2012-9-15,95.4,69.6,51.6,47.6,31.8,14.0,75,36,11,29.90,29.81,7,1,9,0.00
2012-9-16,94.5,69.5,52.5,44.5,28.9,12.5,63,30,11,29.87,29.78,8,1,10,0.00
2012-9-17,87.3,64.6,52.5,46.9,36.5,22.5,75,43,13,29.87,29.81,6,1,9,0.00
2012-9-18,85.8,62.8,49.3,46.0,35.5,24.6,78,45,16,29.93,29.84,7,1,10,0.00
2012-9-19,80.4,61.4,51.1,48.8,37.4,25.2,79,49,17,29.93,29.84,7,1,10,0.00
2012-9-20,87.8,63.3,48.4,49.4,34.6,17.3,83,46,13,29.90,29.81,9,1,11,0.00
2012-9-21,93.7,67.8,48.7,48.5,32.8,12.5,80,41,11,29.84,29.72,6,1,8,0.00
2012-9-24,61.0,60.6,60.1,35.0,34.2,33.6,41,39,38,29.72,29.72,0,0,2,0.00
2012-9-25,93.9,68.4,52.0,44.7,32.9,18.6,71,36,11,29.72,29.63,9,1,13,0.00
2012-9-26,93.9,67.7,51.1,51.0,37.0,25.5,82,42,14,29.66,29.60,4,0,6,0.00
2012-9-27,100.2,72.3,53.8,50.4,36.6,21.6,76,38,10,29.66,29.57,4,0,6,0.16
2012-9-28,84.2,67.3,56.3,47.1,37.0,27.9,65,39,19,29.69,29.60,8,1,10,0.00
2012-9-29,99.9,70.5,52.9,52.2,36.9,20.4,83,43,10,29.75,29.66,4,0,7,0.00
2012-9-30,104.7,77.4,57.7,41.8,28.8,17.3,53,25,9,29.78,29.66,4,0,5,0.00
2012-10-1,108.1,80.5,59.2,34.4,22.7,12.5,38,18,8,29.72,29.60,4,0,6,0.00
2012-10-2,109.9,81.4,0.0,29.4,19.0,10.0,33,14,8,29.60,29.48,4,0,5,0.00
2012-10-3,99.9,76.2,61.0,42.0,24.9,15.8,50,21,10,29.63,29.51,9,1,13,0.00
2012-10-4,82.4,64.7,57.2,51.0,42.1,30.1,76,50,20,29.78,29.63,8,2,10,0.00
2012-10-5,78.3,63.7,56.3,52.0,43.2,29.5,84,53,22,29.78,29.69,8,2,11,0.00
2012-10-6,79.2,62.1,51.6,53.3,39.0,26.6,85,51,20,29.72,29.57,9,2,12,0.00
2012-10-7,79.0,61.7,51.6,50.5,39.5,28.2,81,51,20,29.60,29.54,9,2,11,0.00
2012-10-8,74.3,60.3,48.7,53.6,40.6,28.2,87,56,23,29.63,29.57,9,2,11,0.00
2012-10-9,80.1,62.3,49.3,50.5,39.8,28.2,83,51,20,29.63,29.51,8,2,12,0.00
2012-10-10,78.8,61.5,50.7,53.6,41.1,29.8,86,54,21,29.54,29.45,11,2,17,0.00
2012-10-11,58.6,56.2,52.2,47.9,44.5,41.4,80,66,55,29.54,29.45,7,1,13,0.00
2012-10-12,64.4,56.8,49.6,49.8,42.1,35.1,83,61,37,29.78,29.51,6,1,8,0.04
2012-10-13,83.7,60.8,46.8,49.4,38.9,28.3,84,53,19,29.84,29.72,8,1,11,0.00
2012-10-14,87.1,65.4,52.5,57.1,44.9,34.3,88,56,20,29.75,29.66,5,1,8,0.00
2012-10-15,89.6,67.7,52.7,55.7,42.6,31.1,86,50,18,29.69,29.54,7,1,10,0.00
2012-10-16,88.0,69.6,58.8,56.8,47.5,38.3,81,52,22,29.57,29.45,9,1,12,0.00
2012-10-17,96.1,71.4,53.6,51.5,26.3,10.0,75,31,10,29.48,29.39,6,1,8,0.00
2012-10-18,95.4,71.4,56.3,51.3,25.6,10.0,62,24,11,29.57,29.45,8,1,13,0.00
2012-10-19,84.0,68.5,56.5,57.6,49.5,38.6,80,57,24,29.60,29.45,8,1,10,0.00
2012-10-20,73.2,59.6,49.8,54.8,43.7,35.1,84,60,32,29.51,29.34,9,1,12,0.00
2012-10-21,63.0,55.2,48.0,41.8,33.4,23.1,74,48,27,29.45,29.37,10,2,15,0.00
2012-10-22,65.5,55.4,50.9,49.6,39.4,25.3,83,59,28,29.48,29.28,9,3,13,0.47
2012-10-23,67.3,54.9,47.8,50.8,36.8,21.8,86,58,23,29.57,29.48,12,1,20,0.04
2012-10-24,66.0,54.9,46.9,45.1,37.0,24.8,81,56,25,29.72,29.54,8,2,11,0.00
2012-10-25,73.2,57.9,50.7,48.7,38.7,25.1,82,54,23,29.78,29.69,6,0,8,0.00
2012-10-26,83.8,61.2,45.5,33.3,25.6,13.9,53,33,11,29.75,29.63,4,0,6,0.00
2012-10-27,88.5,65.7,49.8,43.9,35.9,26.4,70,41,15,29.63,29.51,6,0,8,0.00
2012-10-28,88.0,67.1,53.8,51.2,40.7,27.2,77,47,15,29.57,29.48,4,0,6,0.00
2012-10-29,86.9,65.0,51.6,51.9,42.2,32.6,81,52,19,29.63,29.57,4,0,6,0.00
2012-10-30,82.8,61.2,50.7,56.3,43.4,28.8,91,60,19,29.60,29.48,8,1,9,0.04
2012-10-31,63.0,59.3,56.7,52.2,47.5,40.8,84,67,47,29.54,29.48,8,1,10,0.00
2012-11-1,70.5,60.0,51.1,57.7,49.4,38.1,93,72,35,29.57,29.51,7,1,10,0.31
2012-11-2,76.5,56.9,45.3,48.6,39.3,32.3,83,57,24,29.60,29.54,5,1,7,0.00
2012-11-3,82.0,60.5,48.2,49.1,38.7,28.2,82,53,20,29.69,29.57,4,0,5,0.00
2012-11-4,87.3,64.4,51.4,48.3,39.1,26.9,74,48,16,29.72,29.66,4,0,6,0.00
2012-11-5,89.4,66.0,52.5,48.5,40.3,28.1,76,47,18,29.72,29.60,3,0,5,0.00
2012-11-6,88.7,65.7,52.2,51.4,42.0,32.3,79,50,18,29.63,29.54,3,0,5,0.00
2012-11-7,76.1,60.0,51.1,49.4,42.6,28.2,78,58,22,29.57,29.45,9,1,13,0.00
2012-11-8,59.5,51.3,42.1,43.1,33.5,24.2,74,53,31,29.48,29.37,10,3,15,0.16
2012-11-9,59.0,46.9,39.4,43.6,32.3,21.9,86,61,28,29.48,29.39,8,1,11,0.08
2012-11-10,66.4,49.4,39.9,35.2,27.3,17.0,74,48,20,29.75,29.48,8,1,10,0.00
2012-11-11,67.1,47.7,36.7,37.7,27.7,19.8,81,52,23,29.87,29.72,6,1,8,0.00
2012-11-12,69.6,49.6,37.2,34.1,24.9,18.2,72,44,20,29.84,29.75,4,0,6,0.00
2012-11-13,75.9,54.0,40.6,28.2,23.9,17.3,54,37,15,29.75,29.60,4,0,5,0.00
2012-11-14,76.8,55.2,44.4,37.3,30.2,22.9,64,43,20,29.63,29.51,0,0,2,0.00
2012-11-15,73.8,55.8,44.4,38.0,31.9,25.7,65,45,21,29.51,29.42,0,0,0,0.00
2012-11-16,64.2,56.2,47.1,51.0,44.8,34.3,85,68,36,29.51,29.37,0,0,0,0.04
2012-11-17,60.8,57.1,0.0,55.3,50.6,41.8,93,79,59,29.99,29.34,8,2,13,0.83
2012-11-18,65.3,54.3,46.9,52.7,39.1,22.7,94,63,25,30.19,29.99,7,1,10,0.04
2012-11-19,68.7,56.9,46.9,45.7,34.8,25.1,75,49,24,30.22,30.13,9,1,11,0.00
2012-11-20,68.7,60.0,51.6,48.8,41.7,37.4,69,53,35,30.16,30.01,10,4,15,0.00
2012-11-21,66.4,57.4,46.0,55.5,45.5,34.7,88,68,36,30.19,30.01,8,1,11,0.63
2012-11-22,71.6,52.6,41.9,48.2,34.7,25.3,90,58,22,30.22,30.16,4,0,5,0.00
2012-11-23,74.5,53.6,41.5,42.1,35.1,27.2,82,56,22,30.22,30.13,4,0,7,0.00
2012-11-24,76.3,54.7,42.8,45.1,35.2,26.3,81,55,21,30.19,30.01,3,0,5,0.00
2012-11-25,74.3,53.8,42.3,45.2,36.9,27.0,85,59,22,30.01,29.93,4,0,5,0.00
2012-11-26,74.5,53.5,41.2,42.9,36.9,28.5,84,60,23,30.07,29.96,4,0,5,0.00
2012-11-27,65.8,53.3,45.5,51.1,41.4,34.3,91,68,35,30.10,29.99,5,0,6,0.00
2012-11-28,62.1,54.7,48.7,52.4,44.9,38.4,82,71,48,30.04,29.84,11,2,15,0.39
2012-11-29,61.2,58.1,53.1,52.4,43.5,33.4,76,60,40,30.04,29.90,10,4,16,0.00
2012-11-30,60.3,58.8,55.4,55.7,52.2,47.8,89,79,68,30.04,29.81,14,4,26,2.20
2012-12-1,63.0,59.0,55.6,55.5,49.9,45.4,93,73,56,30.04,29.93,10,3,14,0.39
2012-12-2,61.5,55.7,45.1,56.4,47.2,37.6,89,75,45,30.10,29.78,15,3,27,1.57
2012-12-3,65.5,51.0,40.1,47.7,39.3,29.8,94,69,30,30.19,30.07,4,1,6,0.00
2012-12-4,64.0,55.3,48.9,48.9,43.7,39.9,84,67,45,30.19,30.13,4,0,8,0.00
2012-12-5,62.6,58.9,55.2,60.8,54.7,41.0,95,87,52,30.16,30.10,8,1,10,0.71
2012-12-6,57.0,53.3,45.9,54.5,47.5,41.6,98,82,62,30.13,30.07,8,1,10,0.04
2012-12-7,68.7,51.0,40.3,49.8,37.4,25.8,95,68,24,30.13,30.04,4,1,5,0.00
2012-12-8,63.0,47.9,38.1,50.6,33.8,21.5,89,64,24,30.07,30.01,5,0,6,0.00
2012-12-9,71.4,55.4,41.9,33.8,25.9,19.6,71,37,22,30.16,30.07,7,1,8,0.00
2012-12-10,75.0,57.6,46.9,34.7,29.2,24.6,62,38,21,30.22,30.07,5,1,8,0.00
2012-12-11,70.7,51.3,41.0,42.5,36.2,27.6,77,60,24,30.10,29.87,10,1,11,0.00
2012-12-12,50.0,48.8,38.5,44.0,42.7,31.5,82,80,76,29.90,0.00,9,3,13,0.04
2012-12-13,59.9,43.1,35.1,42.5,28.7,18.6,87,63,25,29.90,29.81,5,0,8,0.00
2012-12-14,51.4,40.6,0.0,34.3,30.4,24.0,82,68,38,30.01,29.78,5,0,8,0.00
2012-12-15,45.9,40.2,32.7,40.5,34.9,29.3,90,82,55,30.07,29.96,4,0,6,0.16
2012-12-16,55.9,49.6,42.8,48.8,41.9,37.1,91,77,53,30.07,29.99,8,1,11,0.08
2012-12-17,56.8,52.4,43.7,51.5,44.2,34.4,90,74,59,30.07,29.96,10,3,13,0.28
2012-12-18,56.7,45.0,36.1,36.2,22.2,13.2,74,45,25,30.13,29.96,8,2,16,0.00
2012-12-19,58.3,40.6,30.0,27.9,18.1,9.7,74,45,19,30.28,30.13,4,1,7,0.00
2012-12-20,59.9,45.5,31.8,25.5,18.9,12.6,65,40,24,30.19,29.99,10,2,14,0.00
2012-12-21,49.8,48.9,48.2,25.3,22.4,17.4,42,37,30,29.99,29.93,7,3,10,0.00
2012-12-23,54.1,51.6,47.1,52.0,47.1,42.8,95,85,74,29.99,29.84,15,3,23,0.75
2012-12-24,61.2,47.9,39.6,47.9,35.0,25.9,93,66,30,30.16,29.99,6,1,9,0.04
2012-12-25,50.2,43.5,37.4,44.8,36.4,28.3,89,76,54,30.13,29.78,10,2,15,0.67
2012-12-26,54.0,47.5,42.8,43.9,38.2,31.9,85,71,48,30.04,29.84,8,2,11,0.04
2012-12-27,61.2,46.4,37.2,39.9,30.5,21.4,79,59,26,30.13,30.04,5,1,7,0.00
2012-12-28,46.9,40.2,34.0,35.7,32.3,28.6,85,74,56,30.13,30.01,3,0,4,0.00
2012-12-29,58.3,44.5,36.7,41.8,32.5,21.9,88,67,28,30.07,29.99,4,1,6,0.08
2012-12-30,60.3,43.5,34.5,38.9,26.6,17.5,86,57,25,30.13,29.99,4,1,7,0.00
2012-12-31,59.7,42.1,30.9,27.4,20.7,11.5,73,48,22,30.25,30.13,5,1,6,0.00
2013-1-1,57.4,42.5,33.6,32.8,25.1,18.9,75,54,26,30.25,30.16,5,1,8,0.00